Time;durP1;ratioP1;P1;durP2;ratioP2;P2;SDS_P1;SDS_P2;PMS_P1;PMS_P2;Temp;Humidity;BMP_temperature;BMP_pressure;BME280_temperature;BME280_humidity;BME280_pressure;Samples;Min_cycle;Max_cycle;Signal;HPM_P1;HPM_P2
2022/02/10 00:36:05;;;;;;;14.82;5.63;;;7.80;99.90;;;;;;5067392;28;20044;-73
2022/02/10 00:38:34;;;;;;;18.40;6.63;;;7.80;99.90;;;;;;5067336;28;20440;-72
2022/02/10 00:41:00;;;;;;;14.18;4.60;;;7.80;99.90;;;;;;5067045;28;20082;-73
2022/02/10 00:43:26;;;;;;;13.90;5.15;;;7.80;99.90;;;;;;5067592;28;20385;-72
2022/02/10 00:45:51;;;;;;;8.23;3.95;;;7.80;99.90;;;;;;5067734;28;20055;-73
2022/02/10 00:48:18;;;;;;;16.88;5.65;;;7.80;99.90;;;;;;5079156;28;20021;-73
2022/02/10 00:50:46;;;;;;;14.02;5.40;;;7.80;99.90;;;;;;5085797;28;20028;-74
2022/02/10 00:53:18;;;;;;;16.05;5.85;;;7.80;99.90;;;;;;5068704;28;20039;-74
2022/02/10 00:55:47;;;;;;;17.20;6.80;;;7.80;99.90;;;;;;5086993;28;20047;-74
2022/02/10 00:58:28;;;;;;;14.55;5.43;;;7.80;99.90;;;;;;5087464;28;20024;-75
2022/02/10 01:30:20;;;;;;;15.90;5.72;;;7.90;99.90;;;;;;5086394;28;20461;-73
2022/02/10 01:32:49;;;;;;;13.02;5.82;;;7.90;99.90;;;;;;5086334;28;20032;-72
2022/02/10 01:35:20;;;;;;;11.48;5.15;;;7.80;99.90;;;;;;5086053;28;20043;-72
2022/02/10 01:37:47;;;;;;;16.60;5.65;;;7.90;99.90;;;;;;5085810;28;20024;-71
2022/02/10 01:40:48;;;;;;;13.00;5.57;;;7.90;99.90;;;;;;5086447;28;20761;-73
2022/02/10 02:05:37;;;;;;;22.23;5.97;;;7.80;99.90;;;;;;5065633;28;20040;-71
2022/02/10 02:08:03;;;;;;;27.85;6.50;;;7.80;99.90;;;;;;5064313;28;20032;-74
2022/02/10 02:10:29;;;;;;;19.77;6.20;;;7.80;99.90;;;;;;5065669;28;20100;-71
2022/02/10 02:12:57;;;;;;;24.63;6.10;;;7.80;99.90;;;;;;5065284;28;20486;-72
2022/02/10 02:15:25;;;;;;;30.85;6.03;;;7.80;99.90;;;;;;5065292;28;20565;-70
2022/02/10 02:17:51;;;;;;;10.70;4.82;;;7.80;99.90;;;;;;5065573;28;20025;-70
2022/02/10 02:20:16;;;;;;;24.70;5.00;;;7.70;99.90;;;;;;5064348;28;20041;-70
2022/02/10 02:22:45;;;;;;;12.27;5.35;;;7.90;99.90;;;;;;5064916;28;20040;-71
2022/02/10 02:25:10;;;;;;;13.13;6.00;;;7.80;99.90;;;;;;5072300;28;20060;-71
2022/02/10 02:27:56;;;;;;;12.10;5.57;;;7.80;99.90;;;;;;5066373;28;20033;-70
2022/02/10 02:30:27;;;;;;;17.70;5.30;;;7.80;99.90;;;;;;5098702;28;20027;-70
2022/02/10 03:08:55;;;;;;;20.52;5.13;;;7.70;99.90;;;;;;5020884;28;20034;-71
2022/02/10 03:11:22;;;;;;;9.23;3.67;;;7.80;99.90;;;;;;5056379;28;20082;-71
2022/02/10 03:22:08;;;;;;;11.13;4.10;;;7.80;99.90;;;;;;5064296;28;20047;-72
2022/02/10 04:13:13;;;;;;;19.45;6.55;;;8.00;99.90;;;;;;5088067;28;20495;-69
2022/02/10 04:15:48;;;;;;;20.48;7.82;;;8.00;99.90;;;;;;5088045;28;20052;-71
2022/02/10 04:18:44;;;;;;;25.48;8.10;;;8.10;99.90;;;;;;5087515;28;20412;-71
2022/02/10 04:24:14;;;;;;;31.02;9.00;;;8.10;99.90;;;;;;5086909;28;20055;-70
2022/02/10 04:32:11;;;;;;;25.90;9.60;;;8.10;99.90;;;;;;5087550;28;20036;-71
2022/02/10 04:55:54;;;;;;;35.40;11.57;;;8.20;99.90;;;;;;5086476;28;20067;-70
2022/02/10 05:24:43;;;;;;;4.85;2.00;;;7.90;99.90;;;;;;5086468;28;20091;-70
2022/02/10 05:37:57;;;;;;;3.63;1.30;;;7.60;99.90;;;;;;5050436;28;20032;-69
2022/02/10 05:53:52;;;;;;;1.77;0.60;;;7.40;99.90;;;;;;5086008;28;20036;-71
2022/02/10 06:43:34;;;;;;;2.63;1.25;;;6.80;99.90;;;;;;5073151;28;20408;-74
2022/02/10 06:55:38;;;;;;;4.00;1.13;;;6.90;99.90;;;;;;5061817;28;19917;-71
2022/02/10 06:58:39;;;;;;;2.28;1.50;;;6.80;99.90;;;;;;5062288;28;20025;-70
2022/02/10 07:09:23;;;;;;;8.10;1.60;;;6.90;99.90;;;;;;5076288;28;20047;-72
2022/02/10 07:47:45;;;;;;;3.95;1.58;;;7.00;99.90;;;;;;5069329;28;20036;-71
2022/02/10 07:50:48;;;;;;;7.93;3.17;;;7.00;99.90;;;;;;5087184;28;20059;-70
2022/02/10 07:53:34;;;;;;;7.72;3.17;;;7.10;99.90;;;;;;5068677;28;20035;-72
2022/02/10 07:56:21;;;;;;;6.43;2.28;;;7.10;99.90;;;;;;5085927;28;20029;-71
2022/02/10 07:59:08;;;;;;;4.43;1.80;;;7.10;99.90;;;;;;5092535;28;20086;-73
2022/02/10 08:18:04;;;;;;;3.53;1.60;;;7.20;99.90;;;;;;5055974;28;20044;-71
2022/02/10 08:54:31;;;;;;;19.73;3.72;;;7.10;99.90;;;;;;5076053;28;20055;-74
2022/02/10 08:56:47;;;;;;;10.55;3.17;;;7.10;99.90;;;;;;5083645;28;20032;-72
2022/02/10 08:59:48;;;;;;;7.70;3.47;;;7.20;99.90;;;;;;5090504;28;20051;-72
2022/02/10 09:02:24;;;;;;;14.85;3.90;;;7.20;99.90;;;;;;5093929;28;20052;-73
2022/02/10 09:18:37;;;;;;;13.73;4.53;;;7.20;99.90;;;;;;5066786;28;20108;-74
2022/02/10 10:02:06;;;;;;;8.02;3.75;;;7.70;99.90;;;;;;5085585;28;20396;-74
2022/02/10 10:04:38;;;;;;;11.27;4.00;;;7.70;99.90;;;;;;5086040;28;20024;-74
2022/02/10 10:07:32;;;;;;;11.88;5.28;;;7.80;99.90;;;;;;5085446;28;20028;-74
2022/02/10 10:21:27;;;;;;;8.07;3.33;;;8.00;99.90;;;;;;5070622;28;20463;-75
2022/02/10 10:44:54;;;;;;;11.77;3.28;;;7.70;99.90;;;;;;5077348;28;20097;-75
2022/02/10 10:54:44;;;;;;;5.82;3.38;;;7.70;99.90;;;;;;5079720;28;20079;-75
2022/02/10 10:57:18;;;;;;;;;;;7.70;99.90;;;;;;5065608;28;20371;-75
2022/02/10 11:45:08;;;;;;;4.43;2.10;;;10.10;99.90;;;;;;5074316;28;20028;-73
2022/02/10 14:13:35;;;;;;;2.58;1.00;;;9.70;99.90;;;;;;5076550;28;20040;-73
2022/02/10 14:19:13;;;;;;;5.25;1.30;;;9.60;99.90;;;;;;5045321;28;20029;-73
2022/02/10 14:21:47;;;;;;;6.35;1.17;;;9.50;99.90;;;;;;5071366;28;20032;-72
2022/02/10 14:27:02;;;;;;;;;;;9.30;99.90;;;;;;5084771;28;20036;-72
2022/02/10 14:29:40;;;;;;;2.20;0.70;;;9.10;99.90;;;;;;5087036;28;19936;-74
2022/02/10 14:32:07;;;;;;;4.18;1.02;;;8.90;99.90;;;;;;5083451;28;20457;-72
2022/02/10 14:34:32;;;;;;;3.72;1.45;;;8.80;99.90;;;;;;5089639;28;20047;-73
2022/02/10 14:40:09;;;;;;;2.45;1.25;;;8.70;99.90;;;;;;5048649;28;20066;-72
2022/02/10 15:16:29;;;;;;;7.78;1.58;;;7.90;99.90;;;;;;5064683;28;20040;-73
2022/02/10 15:29:06;;;;;;;6.25;1.75;;;7.80;99.90;;;;;;5064244;28;20040;-72
2022/02/10 15:30:17;;;;;;;;;;;7.80;99.90;;;;;;5064735;28;20033;-76
2022/02/10 16:16:40;;;;;;;4.82;1.30;;;7.00;99.90;;;;;;5076192;28;20544;-74
2022/02/10 16:18:08;;;;;;;12.15;1.42;;;7.00;99.90;;;;;;5056502;28;20059;-73
2022/02/10 16:20:34;;;;;;;1.73;0.65;;;7.00;99.90;;;;;;5099706;28;20469;-73
2022/02/10 16:25:35;;;;;;;6.00;0.90;;;6.90;99.90;;;;;;5108075;28;20061;-73
2022/02/10 16:28:11;;;;;;;5.97;1.85;;;6.90;99.90;;;;;;5082243;28;20418;-73
2022/02/10 16:30:39;;;;;;;3.72;1.33;;;6.90;99.90;;;;;;5068669;28;20085;-73
2022/02/10 16:33:05;;;;;;;10.68;1.40;;;6.80;99.90;;;;;;5066932;28;20028;-73
2022/02/10 16:35:31;;;;;;;2.63;0.80;;;6.80;99.90;;;;;;5075197;28;20081;-73
2022/02/10 16:37:58;;;;;;;5.13;1.20;;;6.80;99.90;;;;;;5069206;28;20047;-73
2022/02/10 16:40:24;;;;;;;5.03;2.28;;;6.80;99.90;;;;;;5081205;28;20032;-74
2022/02/10 16:42:51;;;;;;;8.02;1.73;;;6.70;99.90;;;;;;5087473;28;20039;-76
2022/02/10 16:45:17;;;;;;;7.65;1.33;;;6.70;99.90;;;;;;5087629;28;20024;-74
2022/02/10 16:47:43;;;;;;;6.25;0.80;;;6.60;99.90;;;;;;5075150;28;20028;-73
2022/02/10 16:50:09;;;;;;;5.32;0.90;;;6.50;99.90;;;;;;5080785;28;20050;-73
2022/02/10 16:52:39;;;;;;;4.35;1.10;;;6.50;99.90;;;;;;5090543;28;20020;-73
2022/02/10 16:58:18;;;;;;;10.07;1.35;;;6.50;99.90;;;;;;5107363;28;20388;-74
2022/02/10 17:14:25;;;;;;;3.85;1.20;;;6.40;99.90;;;;;;5107491;28;20058;-73
2022/02/10 17:27:22;;;;;;;6.80;1.17;;;6.40;99.90;;;;;;5086770;28;20059;-74
2022/02/10 17:37:27;;;;;;;11.38;1.05;;;6.40;99.90;;;;;;5104064;28;20027;-71
2022/02/10 17:43:19;;;;;;;8.50;1.05;;;6.40;99.90;;;;;;5066442;28;20428;-72
2022/02/10 17:45:39;;;;;;;5.68;1.17;;;6.30;99.90;;;;;;5096431;28;20028;-73
2022/02/10 17:53:38;;;;;;;1.30;0.68;;;6.40;99.90;;;;;;5085872;28;20051;-73
2022/02/10 17:56:08;;;;;;;17.38;2.38;;;6.30;99.90;;;;;;5086604;28;20393;-72
2022/02/10 17:58:34;;;;;;;1.88;0.88;;;6.30;99.90;;;;;;5075819;28;20036;-73
2022/02/10 18:01:02;;;;;;;7.50;1.45;;;6.30;99.90;;;;;;5068381;28;20033;-73
2022/02/10 18:03:28;;;;;;;9.13;1.65;;;6.30;99.90;;;;;;5084880;28;20024;-73
2022/02/10 18:08:26;;;;;;;3.97;1.48;;;6.30;99.90;;;;;;5082640;28;20028;-74
2022/02/10 18:16:20;;;;;;;7.03;1.85;;;6.30;99.90;;;;;;5081704;28;20032;-73
2022/02/10 18:19:10;;;;;;;5.80;2.13;;;6.30;99.90;;;;;;5066285;28;20522;-73
2022/02/10 18:22:06;;;;;;;10.30;2.50;;;6.30;99.90;;;;;;5085154;28;20048;-73
2022/02/10 18:24:51;;;;;;;3.28;1.38;;;6.30;99.90;;;;;;5075325;28;20405;-73
2022/02/10 18:30:18;;;;;;;3.33;1.60;;;6.20;99.90;;;;;;5050161;28;20044;-72
2022/02/10 19:05:48;;;;;;;4.75;1.23;;;5.90;99.90;;;;;;5073466;28;20037;-73
2022/02/10 19:08:25;;;;;;;3.03;1.40;;;5.90;99.90;;;;;;5069117;28;20033;-73
2022/02/10 19:10:57;;;;;;;7.70;1.52;;;5.80;99.90;;;;;;5077072;28;20473;-71
2022/02/10 19:13:23;;;;;;;4.57;1.73;;;5.80;99.90;;;;;;5085915;28;20387;-72
2022/02/10 19:15:51;;;;;;;6.53;1.85;;;5.80;99.90;;;;;;5071408;28;20039;-70
2022/02/10 19:18:18;;;;;;;2.65;1.45;;;5.70;99.90;;;;;;5080084;28;20218;-72
2022/02/10 19:20:43;;;;;;;6.38;1.25;;;5.70;99.90;;;;;;5082005;28;20033;-72
2022/02/10 19:23:10;;;;;;;3.28;0.82;;;5.70;99.90;;;;;;5091606;28;20039;-72
2022/02/10 19:25:38;;;;;;;2.53;1.25;;;5.70;99.90;;;;;;5104777;28;20054;-71
2022/02/10 19:28:06;;;;;;;5.60;1.45;;;5.70;99.90;;;;;;5092074;28;20025;-72
2022/02/10 19:30:35;;;;;;;7.00;1.67;;;5.70;99.90;;;;;;5083369;28;20060;-72
2022/02/10 19:33:03;;;;;;;5.70;2.10;;;5.60;99.90;;;;;;5084314;28;20505;-73
2022/02/10 19:35:30;;;;;;;3.92;1.60;;;5.60;99.90;;;;;;5064703;28;20133;-74
2022/02/10 19:38:02;;;;;;;6.43;1.55;;;5.60;99.90;;;;;;5068259;28;20033;-73
2022/02/10 19:40:33;;;;;;;1.77;1.30;;;5.60;99.90;;;;;;5062761;28;20033;-74
2022/02/10 19:42:58;;;;;;;3.60;1.42;;;5.60;99.90;;;;;;5048900;28;20028;-73
2022/02/10 19:45:24;;;;;;;4.07;1.10;;;5.60;99.90;;;;;;5073339;28;20394;-73
2022/02/10 19:47:50;;;;;;;7.00;1.20;;;5.60;99.90;;;;;;5080982;28;20477;-73
2022/02/10 19:50:25;;;;;;;1.90;0.95;;;5.50;99.90;;;;;;5082231;28;20059;-73
2022/02/10 19:52:53;;;;;;;13.00;1.75;;;5.50;99.90;;;;;;5068234;28;20025;-74
2022/02/10 19:55:23;;;;;;;9.13;1.42;;;5.50;99.90;;;;;;5064519;28;20440;-72
2022/02/10 19:57:53;;;;;;;3.97;1.58;;;5.50;99.90;;;;;;5072150;28;20024;-74
2022/02/10 20:00:32;;;;;;;2.53;1.42;;;5.60;99.90;;;;;;5083740;28;20112;-74
2022/02/10 20:02:59;;;;;;;16.70;1.38;;;5.50;99.90;;;;;;5076403;28;20044;-73
2022/02/10 20:05:26;;;;;;;9.00;1.98;;;5.50;99.90;;;;;;5092372;28;20031;-74
2022/02/10 20:07:58;;;;;;;7.35;2.33;;;5.50;99.90;;;;;;5089286;28;20037;-75
2022/02/10 20:10:23;;;;;;;6.25;2.72;;;5.50;99.90;;;;;;5067298;28;20104;-73
2022/02/10 20:12:50;;;;;;;10.88;2.03;;;5.50;99.90;;;;;;5081950;28;20025;-72
2022/02/10 20:15:21;;;;;;;3.45;2.17;;;5.40;99.90;;;;;;5083484;28;20020;-74
2022/02/10 20:17:48;;;;;;;6.72;2.63;;;5.40;99.90;;;;;;5078842;28;20059;-72
2022/02/10 20:20:13;;;;;;;5.57;2.08;;;5.40;99.90;;;;;;5086173;28;20032;-72
2022/02/10 20:22:39;;;;;;;4.85;1.80;;;5.40;99.90;;;;;;5081278;28;20128;-74
2022/02/10 20:25:09;;;;;;;9.20;2.17;;;5.40;99.90;;;;;;5080675;28;20048;-72
2022/02/10 20:27:35;;;;;;;16.00;2.67;;;5.30;99.90;;;;;;5098793;28;20092;-71
2022/02/10 20:30:06;;;;;;;7.47;1.95;;;5.40;99.90;;;;;;5076572;28;20029;-73
2022/02/10 20:32:32;;;;;;;3.88;2.00;;;5.30;99.90;;;;;;5067842;28;20029;-74
2022/02/10 20:34:57;;;;;;;18.98;3.45;;;5.30;99.90;;;;;;5063168;28;20049;-72
2022/02/10 20:37:24;;;;;;;4.32;2.38;;;5.40;99.90;;;;;;5074705;28;20028;-73
2022/02/10 20:39:51;;;;;;;10.10;2.17;;;5.20;99.90;;;;;;5081005;28;20037;-73
2022/02/10 20:42:19;;;;;;;2.85;1.20;;;5.20;99.90;;;;;;5074447;28;20083;-74
2022/02/10 20:44:52;;;;;;;5.90;1.70;;;5.20;99.90;;;;;;5056318;28;20017;-74
2022/02/10 20:47:19;;;;;;;8.27;1.42;;;5.20;99.90;;;;;;5072806;28;20052;-73
2022/02/10 20:49:46;;;;;;;2.80;1.35;;;5.20;99.90;;;;;;5074091;28;20013;-74
2022/02/10 20:52:15;;;;;;;8.90;1.80;;;5.20;99.90;;;;;;5075200;28;20031;-74
2022/02/10 20:54:45;;;;;;;6.57;1.38;;;5.20;99.90;;;;;;5075977;28;20037;-73
2022/02/10 20:57:12;;;;;;;5.68;1.42;;;5.10;99.90;;;;;;5060298;28;20037;-73
2022/02/10 20:59:40;;;;;;;3.75;1.23;;;5.10;99.90;;;;;;5076980;28;20030;-73
2022/02/10 21:04:42;;;;;;;5.20;1.38;;;5.10;99.90;;;;;;5080009;28;20036;-72
2022/02/10 21:07:21;;;;;;;3.28;1.45;;;5.10;99.90;;;;;;5076342;28;20458;-72
2022/02/10 21:12:13;;;;;;;10.00;1.27;;;5.10;99.90;;;;;;5076937;28;20126;-72
2022/02/10 21:14:40;;;;;;;9.30;1.70;;;5.10;99.90;;;;;;5057787;28;20016;-72
2022/02/10 21:17:10;;;;;;;8.30;1.50;;;5.20;99.90;;;;;;5075880;28;20460;-74
2022/02/10 21:19:37;;;;;;;4.00;1.45;;;5.10;99.90;;;;;;5076627;28;20017;-73
2022/02/10 21:22:10;;;;;;;3.03;1.20;;;5.10;99.90;;;;;;5074542;28;20040;-72
2022/02/10 21:24:40;;;;;;;1.30;0.90;;;5.10;99.90;;;;;;5077398;28;20481;-72
2022/02/10 21:29:55;;;;;;;22.70;1.80;;;5.00;99.90;;;;;;5081393;28;20061;-74
2022/02/10 21:32:21;;;;;;;9.85;2.05;;;5.00;99.90;;;;;;5079827;28;20044;-72
2022/02/10 21:35:08;;;;;;;18.85;2.17;;;5.00;99.90;;;;;;5074368;28;20021;-75
2022/02/10 21:37:43;;;;;;;12.65;2.10;;;5.10;99.90;;;;;;5074007;28;20024;-73
2022/02/10 21:40:28;;;;;;;4.60;1.48;;;5.00;99.90;;;;;;5075954;28;20116;-73
2022/02/10 22:05:02;;;;;;;7.15;2.45;;;4.90;99.90;;;;;;5075165;28;20594;-74
2022/02/10 22:23:25;;;;;;;7.70;3.17;;;4.80;99.90;;;;;;5085890;28;20387;-72
2022/02/10 22:25:54;;;;;;;3.80;1.33;;;4.80;99.90;;;;;;5085935;28;20025;-73
2022/02/10 22:30:59;;;;;;;5.93;2.20;;;4.90;99.90;;;;;;5085915;28;20024;-73
2022/02/10 22:33:41;;;;;;;8.88;2.17;;;4.70;99.90;;;;;;5085604;28;20047;-71
2022/02/10 22:36:09;;;;;;;9.88;1.95;;;4.70;99.90;;;;;;5085684;28;20956;-72
2022/02/10 22:38:36;;;;;;;4.07;1.33;;;4.80;99.90;;;;;;5085353;28;20491;-73
2022/02/10 22:41:10;;;;;;;9.30;1.85;;;4.70;99.90;;;;;;5085140;28;20043;-72
2022/02/10 22:43:37;;;;;;;8.50;1.83;;;4.70;99.90;;;;;;5085296;28;20028;-72
2022/02/10 22:46:04;;;;;;;3.72;1.50;;;4.70;99.90;;;;;;5084655;28;20035;-73
2022/02/10 22:48:29;;;;;;;5.47;1.85;;;4.70;99.90;;;;;;5100670;28;20162;-71
2022/02/10 22:50:55;;;;;;;4.97;1.63;;;4.70;99.90;;;;;;5087627;28;20040;-72
2022/02/10 22:53:21;;;;;;;7.00;2.50;;;4.60;99.90;;;;;;5105085;28;20028;-72
2022/02/10 22:55:47;;;;;;;14.70;2.92;;;4.60;99.90;;;;;;5085317;28;20059;-72
2022/02/10 22:58:14;;;;;;;15.35;2.95;;;4.60;99.90;;;;;;5083534;28;20028;-73
2022/02/10 23:00:47;;;;;;;21.08;2.95;;;4.60;99.90;;;;;;5081067;28;20020;-73
2022/02/10 23:03:20;;;;;;;26.95;5.57;;;4.60;99.90;;;;;;5105941;28;20040;-72
2022/02/10 23:05:47;;;;;;;7.85;2.50;;;4.60;99.90;;;;;;5086860;28;20115;-72
2022/02/10 23:08:14;;;;;;;9.15;2.35;;;4.60;99.90;;;;;;5086887;28;20099;-72
2022/02/10 23:13:09;;;;;;;13.70;2.22;;;4.50;99.90;;;;;;5065530;28;20037;-72
2022/02/10 23:15:38;;;;;;;9.98;1.58;;;4.50;99.90;;;;;;5078983;28;20466;-73
2022/02/10 23:18:20;;;;;;;6.45;1.48;;;4.60;99.90;;;;;;5061813;28;20473;-73
2022/02/10 23:20:49;;;;;;;10.30;1.90;;;4.50;99.90;;;;;;5067154;28;20419;-74
2022/02/10 23:23:16;;;;;;;7.32;1.80;;;4.50;99.90;;;;;;5085155;28;20028;-72
2022/02/10 23:25:45;;;;;;;3.33;1.45;;;4.40;99.90;;;;;;5085061;28;20055;-73
2022/02/10 23:28:17;;;;;;;8.82;1.60;;;4.40;99.90;;;;;;5085071;28;20028;-72
2022/02/10 23:30:46;;;;;;;3.47;1.42;;;4.40;99.90;;;;;;5066146;28;20064;-74
2022/02/10 23:33:23;;;;;;;13.55;2.25;;;4.40;99.90;;;;;;5073534;28;20022;-73
2022/02/10 23:43:40;;;;;;;9.77;1.38;;;4.30;99.90;;;;;;5071175;28;20036;-73
2022/02/10 23:46:06;;;;;;;3.33;1.35;;;4.30;99.90;;;;;;5066002;28;20058;-72
2022/02/10 23:48:33;;;;;;;5.47;1.35;;;4.30;99.90;;;;;;5065140;28;20021;-74
2022/02/10 23:50:59;;;;;;;3.15;1.55;;;4.20;99.90;;;;;;5082890;28;20047;-72
2022/02/10 23:53:27;;;;;;;5.72;2.78;;;4.30;99.90;;;;;;5084593;28;20465;-72
2022/02/10 23:55:53;;;;;;;1.27;0.93;;;4.20;99.90;;;;;;5084497;28;20554;-73
